Oceana Nas /Apollo Soucek Field/ Station
KNTU : now visible

Airfield :











YOU CAN JOIN US ON...

 
LOGIN :

Register | Disclaimer

   EN    FR    IT 

 









Legend :    VFR   Marginal VFR   IFR   Intensive IFR   Very Intensive IFR
Visi :
Ceiling :
>= 8 km
>= 3000ft
5 to 8 km
1000 to 3000 ft
1500m to 5 km
500 to 1000 ft
800 to 1500m
200 to 500 ft
< 800m
< 200 ft
Symbols :   Thunderstorms  Fog  Heavy snow  Heavy precipitations  Wind > 20 kt







- Airport Elevation : 23 ft


KNTU - Oceana Nas /Apollo Soucek Field/ Station

CURRENT METAR :
  • 181056Z 05012KT 10SM SCT030 19/11 A3009 RMK AO2 SLP193 T01940111

EXPIRED METARs :
  • 180956Z 05010KT 10SM SCT045 19/12 A3008 RMK AO2 SLP190 T01940117
  • 180856Z 03010KT 10SM FEW042 19/12 A3007 RMK AO2 SLP184 T01940122 50001 $

TAF TAF KNTU
Valid from the 18 at 07:00 until the 19 at 07:00 UTC


1807/1907 07012KT 9999 SCT250 QNH3003INS
TEMPO 1807/1813 06018G25KT SCT020
FM181300 05015G24KT 9999 BKN030 BKN300 QNH3005INS
FM181800 06018G28KT 9999 SCT030 QNH3009INS
FM190600 06012G18KT 9999 SCT030 QNH3012INS T18/1810Z T23/1819Z FN00213
No reported NOTAMs for that airfield.



MET'MAP, your aeronautical weather chart ! - Copyright ORBIFLY December 2007 - Disclaimer

ORBIFLY MET'MAP TEAM :

Programming & Development : Alexandra Zaïnal
Concept & Development : Baudouin d'Aumeries
Co-Development & Prog : Marc-Olivier Méhu
Technical & hardware support : Manuel Goepfert

Contact : metmap@orbifly.com




SOURCES & CREDITS :

   NOAA       Earth
Advisory